sensor_id;sensor_type;location;lat;lon;timestamp;pressure;altitude;pressure_sealevel;temperature;humidity
61676;BME280;47574;52.090;5.244;2022-12-18T00:01:00;102824.0;;;4.75;50.17
61676;BME280;47574;52.090;5.244;2022-12-18T00:02:36;102822.0;;;4.62;50.25
61676;BME280;47574;52.090;5.244;2022-12-18T00:04:16;102826.0;;;4.57;50.09
61676;BME280;47574;52.090;5.244;2022-12-18T00:05:58;102814.00000000001;;;4.66;50.16
61676;BME280;47574;52.090;5.244;2022-12-18T00:09:12;102811.99999999999;;;4.75;50.16
61676;BME280;47574;52.090;5.244;2022-12-18T00:10:48;102805.0;;;4.74;49.89
61676;BME280;47574;52.090;5.244;2022-12-18T00:12:24;102805.0;;;4.8;50.11
61676;BME280;47574;52.090;5.244;2022-12-18T00:15:38;102799.0;;;4.76;50.1
61676;BME280;47574;52.090;5.244;2022-12-18T00:17:15;102792.0;;;5.09;49.6
61676;BME280;47574;52.090;5.244;2022-12-18T00:18:53;102795.0;;;5.07;49.44
61676;BME280;47574;52.090;5.244;2022-12-18T00:22:12;102792.0;;;4.87;49.56
61676;BME280;47574;52.090;5.244;2022-12-18T00:23:49;102791.00000000001;;;4.76;49.55
61676;BME280;47574;52.090;5.244;2022-12-18T00:25:27;102792.0;;;4.74;49.86
61676;BME280;47574;52.090;5.244;2022-12-18T00:27:03;102798.0;;;4.86;49.73
61676;BME280;47574;52.090;5.244;2022-12-18T00:30:15;102802.0;;;4.76;49.8
61676;BME280;47574;52.090;5.244;2022-12-18T00:31:52;102802.0;;;4.58;50.11
61676;BME280;47574;52.090;5.244;2022-12-18T00:33:28;102800.0;;;4.62;49.68
61676;BME280;47574;52.090;5.244;2022-12-18T00:35:07;102794.0;;;4.61;49.66
61676;BME280;47574;52.090;5.244;2022-12-18T00:38:19;102796.0;;;4.33;50.16
61676;BME280;47574;52.090;5.244;2022-12-18T00:39:55;102790.00000000001;;;4.68;49.65
61676;BME280;47574;52.090;5.244;2022-12-18T00:41:31;102792.0;;;4.7;49.57
61676;BME280;47574;52.090;5.244;2022-12-18T00:44:45;102794.0;;;4.87;49.32
61676;BME280;47574;52.090;5.244;2022-12-18T00:46:21;102792.0;;;4.92;49.05
61676;BME280;47574;52.090;5.244;2022-12-18T00:47:57;102791.00000000001;;;4.76;49.47
61676;BME280;47574;52.090;5.244;2022-12-18T00:51:09;102790.00000000001;;;4.87;49.18
61676;BME280;47574;52.090;5.244;2022-12-18T00:52:45;102793.0;;;4.86;49.32
61676;BME280;47574;52.090;5.244;2022-12-18T00:54:22;102795.0;;;4.95;48.83
61676;BME280;47574;52.090;5.244;2022-12-18T00:55:59;102792.0;;;4.66;49.3
61676;BME280;47574;52.090;5.244;2022-12-18T00:59:11;102791.00000000001;;;4.57;49.9
61676;BME280;47574;52.090;5.244;2022-12-18T01:00:47;102791.00000000001;;;4.57;49.8
61676;BME280;47574;52.090;5.244;2022-12-18T01:02:24;102791.00000000001;;;4.68;49.63
61676;BME280;47574;52.090;5.244;2022-12-18T01:05:39;102789.00000000001;;;4.8;49.44
61676;BME280;47574;52.090;5.244;2022-12-18T01:07:15;102792.0;;;4.74;49.33
61676;BME280;47574;52.090;5.244;2022-12-18T01:08:52;102799.0;;;4.87;48.81
61676;BME280;47574;52.090;5.244;2022-12-18T01:12:05;102799.0;;;4.78;49.15
61676;BME280;47574;52.090;5.244;2022-12-18T01:13:41;102796.0;;;4.7;49.35
61676;BME280;47574;52.090;5.244;2022-12-18T01:15:19;102795.0;;;4.62;49.51
61676;BME280;47574;52.090;5.244;2022-12-18T01:16:55;102796.0;;;4.76;49.32
61676;BME280;47574;52.090;5.244;2022-12-18T01:20:10;102792.0;;;4.58;49.47
61676;BME280;47574;52.090;5.244;2022-12-18T01:21:47;102792.0;;;4.68;49.35
61676;BME280;47574;52.090;5.244;2022-12-18T01:23:23;102794.0;;;4.75;49.13
61676;BME280;47574;52.090;5.244;2022-12-18T01:26:41;102798.0;;;4.59;49.48
61676;BME280;47574;52.090;5.244;2022-12-18T01:28:16;102807.0;;;4.63;49.38
61676;BME280;47574;52.090;5.244;2022-12-18T01:29:53;102803.0;;;4.91;49.0
61676;BME280;47574;52.090;5.244;2022-12-18T01:33:09;102793.0;;;4.93;48.85
61676;BME280;47574;52.090;5.244;2022-12-18T01:34:45;102793.0;;;4.75;49.07
61676;BME280;47574;52.090;5.244;2022-12-18T01:36:24;102798.0;;;4.62;49.18
61676;BME280;47574;52.090;5.244;2022-12-18T01:38:01;102808.0;;;4.37;49.65
61676;BME280;47574;52.090;5.244;2022-12-18T01:41:14;102808.99999999999;;;4.63;49.25
61676;BME280;47574;52.090;5.244;2022-12-18T01:42:55;102811.99999999999;;;4.63;49.17
61676;BME280;47574;52.090;5.244;2022-12-18T01:45:02;102811.99999999999;;;4.72;49.08
61676;BME280;47574;52.090;5.244;2022-12-18T01:46:57;102804.0;;;4.7;49.13
61676;BME280;47574;52.090;5.244;2022-12-18T01:48:33;102806.0;;;4.68;49.21
61676;BME280;47574;52.090;5.244;2022-12-18T01:51:50;102813.00000000001;;;4.42;49.56
61676;BME280;47574;52.090;5.244;2022-12-18T01:53:28;102813.00000000001;;;4.7;49.37
61676;BME280;47574;52.090;5.244;2022-12-18T01:55:06;102818.0;;;4.49;49.56
61676;BME280;47574;52.090;5.244;2022-12-18T01:56:42;102823.0;;;4.49;49.51
61676;BME280;47574;52.090;5.244;2022-12-18T02:00:00;102820.0;;;4.36;49.77
61676;BME280;47574;52.090;5.244;2022-12-18T02:01:43;102821.0;;;4.32;49.71
61676;BME280;47574;52.090;5.244;2022-12-18T02:03:20;102813.00000000001;;;4.74;49.22
61676;BME280;47574;52.090;5.244;2022-12-18T02:06:36;102808.99999999999;;;4.58;49.16
61676;BME280;47574;52.090;5.244;2022-12-18T02:08:20;102814.00000000001;;;4.42;49.18
61676;BME280;47574;52.090;5.244;2022-12-18T02:10:05;102820.0;;;4.45;48.89
61676;BME280;47574;52.090;5.244;2022-12-18T02:11:50;102822.0;;;4.61;48.51
61676;BME280;47574;52.090;5.244;2022-12-18T02:13:35;102829.0;;;4.38;49.0
61676;BME280;47574;52.090;5.244;2022-12-18T02:17:07;102825.0;;;4.41;48.78
61676;BME280;47574;52.090;5.244;2022-12-18T02:18:50;102827.0;;;4.45;48.59
61676;BME280;47574;52.090;5.244;2022-12-18T02:20:34;102831.0;;;4.49;48.68
61676;BME280;47574;52.090;5.244;2022-12-18T02:22:23;102831.0;;;4.45;48.63
61676;BME280;47574;52.090;5.244;2022-12-18T02:24:17;102830.0;;;4.41;48.7
61676;BME280;47574;52.090;5.244;2022-12-18T02:26:06;102831.0;;;4.38;48.56
61676;BME280;47574;52.090;5.244;2022-12-18T02:29:30;102832.0;;;4.07;49.12
61676;BME280;47574;52.090;5.244;2022-12-18T02:31:11;102828.0;;;4.17;49.24
61676;BME280;47574;52.090;5.244;2022-12-18T02:32:53;102822.0;;;4.28;48.8
61676;BME280;47574;52.090;5.244;2022-12-18T02:34:32;102821.0;;;4.18;48.63
61676;BME280;47574;52.090;5.244;2022-12-18T02:37:53;102823.0;;;3.95;49.1
61676;BME280;47574;52.090;5.244;2022-12-18T02:39:30;102823.0;;;4.08;48.83
61676;BME280;47574;52.090;5.244;2022-12-18T02:41:09;102820.0;;;4.21;48.67
61676;BME280;47574;52.090;5.244;2022-12-18T02:42:46;102828.0;;;4.07;48.74
61676;BME280;47574;52.090;5.244;2022-12-18T02:46:00;102827.0;;;4.2;48.51
61676;BME280;47574;52.090;5.244;2022-12-18T02:47:56;102819.0;;;3.92;48.66
61676;BME280;47574;52.090;5.244;2022-12-18T02:49:36;102808.99999999999;;;3.83;48.8
61676;BME280;47574;52.090;5.244;2022-12-18T02:51:27;102816.00000000001;;;3.94;48.79
61676;BME280;47574;52.090;5.244;2022-12-18T02:54:59;102816.00000000001;;;3.82;49.04
61676;BME280;47574;52.090;5.244;2022-12-18T02:56:46;102813.00000000001;;;3.85;48.7
61676;BME280;47574;52.090;5.244;2022-12-18T02:58:30;102807.0;;;3.8;48.79
61676;BME280;47574;52.090;5.244;2022-12-18T03:00:12;102807.0;;;3.73;49.21
61676;BME280;47574;52.090;5.244;2022-12-18T03:01:52;102802.0;;;4.3;47.87
61676;BME280;47574;52.090;5.244;2022-12-18T03:05:17;102807.0;;;3.78;48.72
61676;BME280;47574;52.090;5.244;2022-12-18T03:07:01;102801.0;;;4.03;48.66
61676;BME280;47574;52.090;5.244;2022-12-18T03:08:44;102795.0;;;3.79;48.86
61676;BME280;47574;52.090;5.244;2022-12-18T03:10:25;102791.00000000001;;;3.72;48.74
61676;BME280;47574;52.090;5.244;2022-12-18T03:12:10;102792.0;;;3.75;48.61
61676;BME280;47574;52.090;5.244;2022-12-18T03:15:35;102791.00000000001;;;3.79;48.22
61676;BME280;47574;52.090;5.244;2022-12-18T03:17:16;102783.99999999999;;;3.41;48.9
61676;BME280;47574;52.090;5.244;2022-12-18T03:18:57;102781.0;;;3.61;48.55
61676;BME280;47574;52.090;5.244;2022-12-18T03:20:37;102778.0;;;3.58;48.47
61676;BME280;47574;52.090;5.244;2022-12-18T03:24:00;102773.0;;;3.6;48.71
61676;BME280;47574;52.090;5.244;2022-12-18T03:25:40;102767.0;;;3.67;48.37
61676;BME280;47574;52.090;5.244;2022-12-18T03:27:20;102766.00000000001;;;3.57;48.47
61676;BME280;47574;52.090;5.244;2022-12-18T03:29:03;102767.0;;;3.47;48.71
61676;BME280;47574;52.090;5.244;2022-12-18T03:32:26;102765.00000000001;;;3.66;48.29
61676;BME280;47574;52.090;5.244;2022-12-18T03:34:09;102764.00000000001;;;3.65;48.17
61676;BME280;47574;52.090;5.244;2022-12-18T03:35:49;102758.99999999999;;;3.61;47.9
61676;BME280;47574;52.090;5.244;2022-12-18T03:37:25;102755.0;;;3.6;47.86
61676;BME280;47574;52.090;5.244;2022-12-18T03:40:56;102757.0;;;3.75;47.49
61676;BME280;47574;52.090;5.244;2022-12-18T03:42:42;102754.0;;;3.69;47.59
61676;BME280;47574;52.090;5.244;2022-12-18T03:44:29;102752.0;;;3.47;48.01
61676;BME280;47574;52.090;5.244;2022-12-18T03:46:12;102752.0;;;3.65;47.66
61676;BME280;47574;52.090;5.244;2022-12-18T03:47:59;102751.0;;;3.73;47.27
61676;BME280;47574;52.090;5.244;2022-12-18T03:49:39;102753.0;;;3.78;47.14
61676;BME280;47574;52.090;5.244;2022-12-18T03:53:17;102754.0;;;3.33;47.64
61676;BME280;47574;52.090;5.244;2022-12-18T03:54:56;102756.0;;;3.41;47.52
61676;BME280;47574;52.090;5.244;2022-12-18T03:56:37;102754.0;;;3.47;47.21
61676;BME280;47574;52.090;5.244;2022-12-18T03:58:19;102751.0;;;3.32;47.45
61676;BME280;47574;52.090;5.244;2022-12-18T04:01:40;102746.0;;;3.21;47.72
61676;BME280;47574;52.090;5.244;2022-12-18T04:03:19;102740.00000000001;;;3.13;47.86
61676;BME280;47574;52.090;5.244;2022-12-18T04:05:00;102729.0;;;2.98;48.14
61676;BME280;47574;52.090;5.244;2022-12-18T04:06:38;102733.0;;;3.18;47.64
61676;BME280;47574;52.090;5.244;2022-12-18T04:09:55;102730.0;;;3.36;47.27
61676;BME280;47574;52.090;5.244;2022-12-18T04:11:32;102729.0;;;3.32;47.36
61676;BME280;47574;52.090;5.244;2022-12-18T04:13:08;102721.0;;;3.46;47.01
61676;BME280;47574;52.090;5.244;2022-12-18T04:14:45;102714.00000000001;;;3.27;47.04
61676;BME280;47574;52.090;5.244;2022-12-18T04:17:57;102708.0;;;3.49;46.93
61676;BME280;47574;52.090;5.244;2022-12-18T04:19:33;102714.00000000001;;;3.16;47.17
61676;BME280;47574;52.090;5.244;2022-12-18T04:21:09;102711.99999999999;;;3.4;47.25
61676;BME280;47574;52.090;5.244;2022-12-18T04:24:24;102707.0;;;3.56;46.71
61676;BME280;47574;52.090;5.244;2022-12-18T04:26:00;102713.00000000001;;;3.39;46.59
61676;BME280;47574;52.090;5.244;2022-12-18T04:27:36;102717.0;;;3.4;46.78
61676;BME280;47574;52.090;5.244;2022-12-18T04:30:48;102716.00000000001;;;3.42;46.8
61676;BME280;47574;52.090;5.244;2022-12-18T04:32:24;102711.99999999999;;;3.31;46.93
61676;BME280;47574;52.090;5.244;2022-12-18T04:34:01;102711.99999999999;;;3.52;46.64
61676;BME280;47574;52.090;5.244;2022-12-18T04:37:13;102715.00000000001;;;3.59;46.48
61676;BME280;47574;52.090;5.244;2022-12-18T04:38:49;102721.0;;;3.63;46.19
61676;BME280;47574;52.090;5.244;2022-12-18T04:40:25;102728.0;;;3.72;46.32
61676;BME280;47574;52.090;5.244;2022-12-18T04:42:02;102733.0;;;3.6;46.18
61676;BME280;47574;52.090;5.244;2022-12-18T04:45:14;102738.00000000001;;;3.46;46.57
61676;BME280;47574;52.090;5.244;2022-12-18T04:46:50;102742.0;;;3.58;46.31
61676;BME280;47574;52.090;5.244;2022-12-18T04:48:26;102746.0;;;3.61;46.27
61676;BME280;47574;52.090;5.244;2022-12-18T04:51:40;102744.0;;;3.57;46.32
61676;BME280;47574;52.090;5.244;2022-12-18T04:53:16;102744.0;;;3.83;45.83
61676;BME280;47574;52.090;5.244;2022-12-18T04:54:52;102747.0;;;3.8;45.83
61676;BME280;47574;52.090;5.244;2022-12-18T04:58:07;102745.0;;;3.86;45.48
61676;BME280;47574;52.090;5.244;2022-12-18T04:59:43;102750.0;;;3.88;45.6
61676;BME280;47574;52.090;5.244;2022-12-18T05:01:19;102756.0;;;3.75;45.83
61676;BME280;47574;52.090;5.244;2022-12-18T05:02:55;102763.00000000001;;;3.8;45.83
61676;BME280;47574;52.090;5.244;2022-12-18T05:06:08;102764.00000000001;;;3.77;45.92
61676;BME280;47574;52.090;5.244;2022-12-18T05:07:45;102759.99999999999;;;3.46;46.32
61676;BME280;47574;52.090;5.244;2022-12-18T05:09:23;102763.00000000001;;;3.61;46.24
61676;BME280;47574;52.090;5.244;2022-12-18T05:12:37;102766.00000000001;;;3.62;45.91
61676;BME280;47574;52.090;5.244;2022-12-18T05:14:13;102767.0;;;3.52;46.25
61676;BME280;47574;52.090;5.244;2022-12-18T05:15:51;102767.0;;;3.63;45.9
61676;BME280;47574;52.090;5.244;2022-12-18T05:19:04;102768.0;;;3.53;46.18
61676;BME280;47574;52.090;5.244;2022-12-18T05:20:40;102772.0;;;3.42;46.19
61676;BME280;47574;52.090;5.244;2022-12-18T05:22:17;102771.0;;;3.55;46.13
61676;BME280;47574;52.090;5.244;2022-12-18T05:23:53;102775.0;;;3.47;46.41
61676;BME280;47574;52.090;5.244;2022-12-18T05:27:05;102779.0;;;3.61;45.76
61676;BME280;47574;52.090;5.244;2022-12-18T05:28:41;102775.0;;;3.39;46.28
61676;BME280;47574;52.090;5.244;2022-12-18T05:30:18;102775.0;;;3.2;46.56
61676;BME280;47574;52.090;5.244;2022-12-18T05:33:31;102779.0;;;3.15;46.82
61676;BME280;47574;52.090;5.244;2022-12-18T05:35:12;102780.0;;;3.26;46.42
61676;BME280;47574;52.090;5.244;2022-12-18T05:36:48;102774.0;;;3.34;46.35
61676;BME280;47574;52.090;5.244;2022-12-18T05:40:02;102772.0;;;3.39;46.51
61676;BME280;47574;52.090;5.244;2022-12-18T05:41:40;102769.0;;;3.21;46.63
61676;BME280;47574;52.090;5.244;2022-12-18T05:43:17;102768.0;;;3.0;46.9
61676;BME280;47574;52.090;5.244;2022-12-18T05:44:53;102758.0;;;3.17;46.8
61676;BME280;47574;52.090;5.244;2022-12-18T05:48:07;102754.0;;;3.27;46.53
61676;BME280;47574;52.090;5.244;2022-12-18T05:49:43;102756.0;;;3.26;46.46
61676;BME280;47574;52.090;5.244;2022-12-18T05:51:21;102763.00000000001;;;3.4;46.24
61676;BME280;47574;52.090;5.244;2022-12-18T05:54:34;102758.0;;;3.22;46.26
61676;BME280;47574;52.090;5.244;2022-12-18T05:56:13;102758.99999999999;;;3.3;46.38
61676;BME280;47574;52.090;5.244;2022-12-18T05:57:50;102752.0;;;3.18;46.52
61676;BME280;47574;52.090;5.244;2022-12-18T05:59:26;102745.0;;;2.98;47.02
61676;BME280;47574;52.090;5.244;2022-12-18T06:02:46;102744.0;;;3.24;46.23
61676;BME280;47574;52.090;5.244;2022-12-18T06:04:23;102744.0;;;3.27;46.31
61676;BME280;47574;52.090;5.244;2022-12-18T06:05:59;102741.00000000001;;;3.26;46.3
61676;BME280;47574;52.090;5.244;2022-12-18T06:09:11;102740.00000000001;;;3.26;46.15
61676;BME280;47574;52.090;5.244;2022-12-18T06:10:50;102733.0;;;2.98;46.9
61676;BME280;47574;52.090;5.244;2022-12-18T06:12:27;102729.0;;;3.1;46.66
61676;BME280;47574;52.090;5.244;2022-12-18T06:14:05;102724.0;;;2.79;47.19
61676;BME280;47574;52.090;5.244;2022-12-18T06:17:17;102722.0;;;3.23;46.52
61676;BME280;47574;52.090;5.244;2022-12-18T06:18:55;102720.0;;;3.29;46.08
61676;BME280;47574;52.090;5.244;2022-12-18T06:20:32;102719.0;;;3.27;46.24
61676;BME280;47574;52.090;5.244;2022-12-18T06:23:44;102719.0;;;3.28;46.22
61676;BME280;47574;52.090;5.244;2022-12-18T06:25:20;102721.0;;;3.4;45.87
61676;BME280;47574;52.090;5.244;2022-12-18T06:26:56;102719.0;;;3.28;46.2
61676;BME280;47574;52.090;5.244;2022-12-18T06:30:10;102724.0;;;3.21;46.23
61676;BME280;47574;52.090;5.244;2022-12-18T06:31:46;102730.0;;;3.5;45.97
61676;BME280;47574;52.090;5.244;2022-12-18T06:33:25;102732.0;;;3.31;46.28
61676;BME280;47574;52.090;5.244;2022-12-18T06:35:03;102721.0;;;3.23;46.3
61676;BME280;47574;52.090;5.244;2022-12-18T06:38:16;102717.0;;;3.33;46.09
61676;BME280;47574;52.090;5.244;2022-12-18T06:39:52;102716.00000000001;;;3.07;46.55
61676;BME280;47574;52.090;5.244;2022-12-18T06:41:28;102714.00000000001;;;3.29;46.11
61676;BME280;47574;52.090;5.244;2022-12-18T06:44:42;102713.00000000001;;;3.42;46.18
61676;BME280;47574;52.090;5.244;2022-12-18T06:46:18;102708.99999999999;;;3.33;46.25
61676;BME280;47574;52.090;5.244;2022-12-18T06:47:55;102701.0;;;3.43;46.18
61676;BME280;47574;52.090;5.244;2022-12-18T06:51:07;102693.0;;;3.34;46.29
61676;BME280;47574;52.090;5.244;2022-12-18T06:52:43;102692.0;;;3.54;45.73
61676;BME280;47574;52.090;5.244;2022-12-18T06:54:20;102682.0;;;3.46;46.04
61676;BME280;47574;52.090;5.244;2022-12-18T06:56:00;102683.0;;;3.47;46.05
61676;BME280;47574;52.090;5.244;2022-12-18T06:59:14;102681.0;;;3.19;46.34
61676;BME280;47574;52.090;5.244;2022-12-18T07:00:50;102683.99999999999;;;3.24;46.34
61676;BME280;47574;52.090;5.244;2022-12-18T07:02:27;102681.0;;;3.19;46.63
61676;BME280;47574;52.090;5.244;2022-12-18T07:05:39;102677.0;;;3.46;46.2
61676;BME280;47574;52.090;5.244;2022-12-18T07:07:16;102675.0;;;3.33;46.31
61676;BME280;47574;52.090;5.244;2022-12-18T07:08:54;102675.0;;;3.43;46.19
61676;BME280;47574;52.090;5.244;2022-12-18T07:10:31;102671.0;;;3.39;46.38
61676;BME280;47574;52.090;5.244;2022-12-18T07:13:44;102668.0;;;3.31;46.22
61676;BME280;47574;52.090;5.244;2022-12-18T07:15:20;102667.0;;;3.31;46.4
61676;BME280;47574;52.090;5.244;2022-12-18T07:16:56;102663.00000000001;;;3.39;46.1
61676;BME280;47574;52.090;5.244;2022-12-18T07:20:10;102665.00000000001;;;3.13;46.55
61676;BME280;47574;52.090;5.244;2022-12-18T07:21:46;102661.99999999999;;;2.96;47.15
61676;BME280;47574;52.090;5.244;2022-12-18T07:23:22;102655.0;;;3.14;46.71
61676;BME280;47574;52.090;5.244;2022-12-18T07:26:35;102655.0;;;3.41;46.39
61676;BME280;47574;52.090;5.244;2022-12-18T07:28:11;102655.0;;;3.27;46.26
61676;BME280;47574;52.090;5.244;2022-12-18T07:29:47;102667.0;;;3.16;46.59
61676;BME280;47574;52.090;5.244;2022-12-18T07:31:24;102659.99999999999;;;3.18;46.69
61676;BME280;47574;52.090;5.244;2022-12-18T07:34:37;102657.0;;;3.25;46.6
61676;BME280;47574;52.090;5.244;2022-12-18T07:36:13;102643.0;;;3.23;46.75
61676;BME280;47574;52.090;5.244;2022-12-18T07:37:50;102633.99999999999;;;3.19;46.8
61676;BME280;47574;52.090;5.244;2022-12-18T07:41:04;102623.0;;;3.5;46.04
61676;BME280;47574;52.090;5.244;2022-12-18T07:42:40;102627.0;;;3.31;46.43
61676;BME280;47574;52.090;5.244;2022-12-18T07:44:17;102620.0;;;3.56;46.07
61676;BME280;47574;52.090;5.244;2022-12-18T07:47:34;102618.0;;;3.57;45.99
61676;BME280;47574;52.090;5.244;2022-12-18T07:49:10;102616.00000000001;;;3.47;46.08
61676;BME280;47574;52.090;5.244;2022-12-18T07:50:46;102619.0;;;3.3;46.49
61676;BME280;47574;52.090;5.244;2022-12-18T07:52:22;102615.00000000001;;;3.3;46.57
61676;BME280;47574;52.090;5.244;2022-12-18T07:55:35;102608.0;;;3.46;46.56
61676;BME280;47574;52.090;5.244;2022-12-18T07:57:11;102611.99999999999;;;3.55;46.28
61676;BME280;47574;52.090;5.244;2022-12-18T07:58:48;102608.99999999999;;;3.6;46.05
61676;BME280;47574;52.090;5.244;2022-12-18T08:02:00;102609.99999999999;;;3.66;45.9
61676;BME280;47574;52.090;5.244;2022-12-18T08:03:38;102607.0;;;3.5;46.31
61676;BME280;47574;52.090;5.244;2022-12-18T08:05:14;102600.0;;;3.68;45.91
61676;BME280;47574;52.090;5.244;2022-12-18T08:08:27;102594.0;;;3.43;46.67
61676;BME280;47574;52.090;5.244;2022-12-18T08:10:05;102591.00000000001;;;3.4;46.98
61676;BME280;47574;52.090;5.244;2022-12-18T08:11:41;102594.0;;;3.81;46.16
61676;BME280;47574;52.090;5.244;2022-12-18T08:13:19;102599.0;;;3.68;46.33
61676;BME280;47574;52.090;5.244;2022-12-18T08:16:31;102603.0;;;3.81;46.42
61676;BME280;47574;52.090;5.244;2022-12-18T08:18:07;102615.00000000001;;;4.0;46.0
61676;BME280;47574;52.090;5.244;2022-12-18T08:19:43;102617.0;;;4.12;45.82
61676;BME280;47574;52.090;5.244;2022-12-18T08:22:58;102618.0;;;3.9;46.15
61676;BME280;47574;52.090;5.244;2022-12-18T08:24:34;102623.0;;;3.97;46.21
61676;BME280;47574;52.090;5.244;2022-12-18T08:26:11;102632.0;;;3.81;46.36
61676;BME280;47574;52.090;5.244;2022-12-18T08:29:23;102625.0;;;3.99;46.25
61676;BME280;47574;52.090;5.244;2022-12-18T08:31:00;102632.0;;;4.07;45.98
61676;BME280;47574;52.090;5.244;2022-12-18T08:32:36;102631.0;;;4.05;46.2
61676;BME280;47574;52.090;5.244;2022-12-18T08:34:11;102624.0;;;4.22;45.8
61676;BME280;47574;52.090;5.244;2022-12-18T08:37:24;102629.0;;;4.13;45.85
61676;BME280;47574;52.090;5.244;2022-12-18T08:39:00;102633.99999999999;;;3.89;46.18
61676;BME280;47574;52.090;5.244;2022-12-18T08:40:36;102638.00000000001;;;4.03;46.21
61676;BME280;47574;52.090;5.244;2022-12-18T08:43:48;102629.0;;;4.0;46.4
61676;BME280;47574;52.090;5.244;2022-12-18T08:45:25;102624.0;;;4.16;45.96
61676;BME280;47574;52.090;5.244;2022-12-18T08:47:01;102618.0;;;3.94;46.39
61676;BME280;47574;52.090;5.244;2022-12-18T08:50:14;102611.99999999999;;;4.18;46.04
61676;BME280;47574;52.090;5.244;2022-12-18T08:51:54;102613.00000000001;;;4.2;45.83
61676;BME280;47574;52.090;5.244;2022-12-18T08:53:30;102608.99999999999;;;4.14;45.98
61676;BME280;47574;52.090;5.244;2022-12-18T08:55:08;102608.99999999999;;;4.18;46.07
61676;BME280;47574;52.090;5.244;2022-12-18T08:58:21;102614.00000000001;;;4.03;46.31
61676;BME280;47574;52.090;5.244;2022-12-18T08:59:57;102615.00000000001;;;4.07;46.6
61676;BME280;47574;52.090;5.244;2022-12-18T09:01:33;102608.0;;;4.22;46.33
61676;BME280;47574;52.090;5.244;2022-12-18T09:06:24;102600.0;;;3.95;46.72
61676;BME280;47574;52.090;5.244;2022-12-18T09:08:00;102598.0;;;4.3;46.1
61676;BME280;47574;52.090;5.244;2022-12-18T09:11:14;102600.0;;;4.07;46.56
61676;BME280;47574;52.090;5.244;2022-12-18T09:12:54;102605.0;;;4.2;46.44
61676;BME280;47574;52.090;5.244;2022-12-18T09:14:30;102613.00000000001;;;4.29;46.29
61676;BME280;47574;52.090;5.244;2022-12-18T09:16:06;102618.0;;;4.24;46.47
61676;BME280;47574;52.090;5.244;2022-12-18T09:19:19;102617.0;;;4.24;46.35
61676;BME280;47574;52.090;5.244;2022-12-18T09:20:55;102613.00000000001;;;4.0;46.63
61676;BME280;47574;52.090;5.244;2022-12-18T09:22:31;102611.99999999999;;;4.03;46.71
61676;BME280;47574;52.090;5.244;2022-12-18T09:25:49;102616.00000000001;;;4.36;46.34
61676;BME280;47574;52.090;5.244;2022-12-18T09:27:25;102616.00000000001;;;4.45;45.95
61676;BME280;47574;52.090;5.244;2022-12-18T09:29:02;102617.0;;;4.12;46.77
61676;BME280;47574;52.090;5.244;2022-12-18T09:30:39;102617.0;;;4.37;46.39
61676;BME280;47574;52.090;5.244;2022-12-18T09:33:54;102609.99999999999;;;4.51;46.05
61676;BME280;47574;52.090;5.244;2022-12-18T09:35:31;102599.0;;;4.46;46.43
61676;BME280;47574;52.090;5.244;2022-12-18T09:37:07;102596.0;;;4.37;46.39
61676;BME280;47574;52.090;5.244;2022-12-18T09:40:22;102592.0;;;4.37;46.5
61676;BME280;47574;52.090;5.244;2022-12-18T09:42:02;102589.00000000001;;;4.41;46.26
61676;BME280;47574;52.090;5.244;2022-12-18T09:43:42;102581.0;;;4.28;46.49
61676;BME280;47574;52.090;5.244;2022-12-18T09:45:21;102579.0;;;4.46;46.22
61676;BME280;47574;52.090;5.244;2022-12-18T09:48:47;102578.0;;;4.43;46.28
61676;BME280;47574;52.090;5.244;2022-12-18T09:50:29;102580.0;;;4.51;46.39
61676;BME280;47574;52.090;5.244;2022-12-18T09:52:12;102581.0;;;4.47;46.37
61676;BME280;47574;52.090;5.244;2022-12-18T09:53:53;102581.0;;;4.57;46.09
61676;BME280;47574;52.090;5.244;2022-12-18T09:57:14;102580.0;;;4.54;46.06
61676;BME280;47574;52.090;5.244;2022-12-18T09:58:58;102583.0;;;4.57;46.21
61676;BME280;47574;52.090;5.244;2022-12-18T10:00:35;102572.0;;;4.79;45.77
61676;BME280;47574;52.090;5.244;2022-12-18T10:02:14;102570.0;;;4.92;45.37
61676;BME280;47574;52.090;5.244;2022-12-18T10:05:37;102566.00000000001;;;4.99;45.66
61676;BME280;47574;52.090;5.244;2022-12-18T10:07:27;102558.0;;;5.04;45.39
61676;BME280;47574;52.090;5.244;2022-12-18T10:09:19;102567.0;;;5.01;45.49
61676;BME280;47574;52.090;5.244;2022-12-18T10:11:02;102558.99999999999;;;4.96;45.78
61676;BME280;47574;52.090;5.244;2022-12-18T10:12:52;102552.0;;;4.71;46.23
61676;BME280;47574;52.090;5.244;2022-12-18T10:16:19;102556.0;;;4.82;45.77
61676;BME280;47574;52.090;5.244;2022-12-18T10:18:08;102561.99999999999;;;5.07;45.52
61676;BME280;47574;52.090;5.244;2022-12-18T10:20:00;102568.0;;;4.99;45.4
61676;BME280;47574;52.090;5.244;2022-12-18T10:21:42;102571.0;;;5.09;45.12
61676;BME280;47574;52.090;5.244;2022-12-18T10:23:27;102567.0;;;5.08;45.11
61676;BME280;47574;52.090;5.244;2022-12-18T10:25:17;102567.0;;;4.96;45.81
61676;BME280;47574;52.090;5.244;2022-12-18T10:28:45;102561.99999999999;;;4.99;45.55
61676;BME280;47574;52.090;5.244;2022-12-18T10:30:24;102564.00000000001;;;5.2;45.25
61676;BME280;47574;52.090;5.244;2022-12-18T10:32:01;102559.99999999999;;;5.3;45.09
61676;BME280;47574;52.090;5.244;2022-12-18T10:33:38;102551.0;;;5.22;45.2
61676;BME280;47574;52.090;5.244;2022-12-18T10:36:56;102542.0;;;5.25;45.18
61676;BME280;47574;52.090;5.244;2022-12-18T10:38:33;102549.0;;;5.26;45.13
61676;BME280;47574;52.090;5.244;2022-12-18T10:40:11;102550.0;;;5.31;45.22
61676;BME280;47574;52.090;5.244;2022-12-18T10:43:26;102547.0;;;5.21;45.06
61676;BME280;47574;52.090;5.244;2022-12-18T10:45:09;102538.00000000001;;;5.14;45.1
61676;BME280;47574;52.090;5.244;2022-12-18T10:46:52;102526.0;;;5.58;44.46
61676;BME280;47574;52.090;5.244;2022-12-18T10:48:30;102528.0;;;5.45;45.18
61676;BME280;47574;52.090;5.244;2022-12-18T10:50:19;102519.0;;;5.38;44.7
61676;BME280;47574;52.090;5.244;2022-12-18T10:53:52;102524.0;;;5.44;44.69